Time;durP1;ratioP1;P1;durP2;ratioP2;P2;SDS_P1;SDS_P2;PMS_P1;PMS_P2;Temp;Humidity;BMP_temperature;BMP_pressure;BME280_temperature;BME280_humidity;BME280_pressure;Samples;Min_cycle;Max_cycle;Signal;HPM_P1;HPM_P2
2022/03/15 00:00:30;;;;;;;7.63;3.25;;;10.90;60.80;;;;;;5039682;28;20025;-46
2022/03/15 00:02:57;;;;;;;7.57;3.33;;;10.90;59.50;;;;;;5039076;28;20405;-47
2022/03/15 00:05:23;;;;;;;9.18;3.88;;;10.90;60.90;;;;;;5038936;28;20507;-46
2022/03/15 00:07:49;;;;;;;7.43;3.53;;;10.90;61.00;;;;;;5039572;28;20121;-47
2022/03/15 00:10:16;;;;;;;9.85;4.03;;;11.00;61.00;;;;;;5039152;28;20022;-46
2022/03/15 00:12:45;;;;;;;8.63;3.80;;;11.00;58.90;;;;;;5039183;28;20026;-46
2022/03/15 00:15:12;;;;;;;10.90;3.40;;;11.00;59.70;;;;;;5038990;28;20026;-45
2022/03/15 00:17:40;;;;;;;7.93;3.22;;;11.10;60.50;;;;;;5039049;28;20025;-47
2022/03/15 00:20:08;;;;;;;10.50;3.75;;;11.10;60.40;;;;;;5038825;28;20506;-45
2022/03/15 00:22:38;;;;;;;9.05;3.38;;;11.10;60.70;;;;;;5038737;28;20041;-45
2022/03/15 00:25:09;;;;;;;6.82;3.33;;;11.10;60.90;;;;;;5037976;28;20073;-50
2022/03/15 00:27:35;;;;;;;9.00;3.67;;;11.10;60.50;;;;;;5038689;28;20030;-46
2022/03/15 00:30:05;;;;;;;6.07;3.50;;;11.10;58.20;;;;;;5038503;28;20397;-46
2022/03/15 00:32:31;;;;;;;8.27;3.58;;;11.00;60.90;;;;;;5038960;28;20021;-45
2022/03/15 00:34:57;;;;;;;6.97;3.20;;;11.00;59.70;;;;;;5038739;28;20028;-48
2022/03/15 00:37:23;;;;;;;8.00;3.33;;;11.00;60.60;;;;;;5038676;28;20025;-46
2022/03/15 00:39:50;;;;;;;8.35;3.53;;;10.90;59.30;;;;;;5038443;28;20491;-45
2022/03/15 00:42:17;;;;;;;9.05;3.20;;;10.90;61.20;;;;;;5038300;28;20514;-47
2022/03/15 00:44:42;;;;;;;8.02;3.45;;;10.90;59.20;;;;;;5038584;28;20461;-46
2022/03/15 00:47:08;;;;;;;6.78;3.28;;;10.80;60.00;;;;;;5038383;28;20121;-46
2022/03/15 00:49:35;;;;;;;8.55;3.22;;;10.80;60.50;;;;;;5038121;28;20033;-48
2022/03/15 00:52:01;;;;;;;7.53;3.50;;;10.80;60.70;;;;;;5038165;28;20017;-46
2022/03/15 00:54:27;;;;;;;6.25;2.78;;;10.80;60.30;;;;;;5038368;28;20027;-46
2022/03/15 00:56:53;;;;;;;7.60;3.25;;;10.80;61.10;;;;;;5038122;28;20167;-46
2022/03/15 00:59:19;;;;;;;8.05;3.55;;;10.80;61.00;;;;;;5038218;28;20033;-45
2022/03/15 01:01:46;;;;;;;10.60;3.70;;;10.80;59.30;;;;;;5038236;28;20021;-45
2022/03/15 01:04:12;;;;;;;9.32;3.70;;;10.90;60.10;;;;;;5038005;28;20030;-46
2022/03/15 01:06:39;;;;;;;8.38;3.78;;;10.80;60.90;;;;;;5038124;28;20030;-48
2022/03/15 01:09:06;;;;;;;9.07;3.72;;;10.80;61.00;;;;;;5037550;28;20033;-46
2022/03/15 01:11:32;;;;;;;9.43;3.38;;;10.80;60.50;;;;;;5037826;28;20482;-46
2022/03/15 01:13:58;;;;;;;7.40;3.45;;;10.80;61.20;;;;;;5038092;28;20049;-46
2022/03/15 01:16:24;;;;;;;6.75;3.45;;;10.80;60.90;;;;;;5038010;28;20021;-45
2022/03/15 01:18:50;;;;;;;8.10;3.60;;;10.80;60.70;;;;;;5037767;28;20045;-46
2022/03/15 01:21:17;;;;;;;8.10;3.30;;;10.80;61.50;;;;;;5037748;28;20377;-45
2022/03/15 01:23:43;;;;;;;8.82;3.10;;;10.80;61.30;;;;;;5037441;28;20516;-45
2022/03/15 01:26:09;;;;;;;8.60;3.55;;;10.80;61.80;;;;;;5037669;28;20619;-47
2022/03/15 01:28:35;;;;;;;9.90;3.58;;;10.80;60.90;;;;;;5037678;28;20036;-47
2022/03/15 01:31:01;;;;;;;8.07;3.30;;;10.90;60.00;;;;;;5037790;28;20026;-45
2022/03/15 01:33:27;;;;;;;11.75;3.15;;;10.80;60.90;;;;;;5038026;28;20060;-46
2022/03/15 01:35:54;;;;;;;6.88;3.10;;;10.80;61.50;;;;;;5037525;28;20024;-47
2022/03/15 01:38:20;;;;;;;9.45;3.40;;;10.90;60.80;;;;;;5037607;28;20033;-46
2022/03/15 01:40:46;;;;;;;8.50;3.50;;;10.80;61.10;;;;;;5037889;28;20469;-45
2022/03/15 01:43:12;;;;;;;8.00;3.00;;;10.80;61.30;;;;;;5037558;28;20048;-46
2022/03/15 01:45:40;;;;;;;8.02;3.70;;;10.80;60.60;;;;;;5037397;28;20026;-46
2022/03/15 01:48:08;;;;;;;4.88;2.63;;;10.80;60.70;;;;;;5037567;28;20026;-46
2022/03/15 01:50:35;;;;;;;9.45;3.58;;;10.90;61.70;;;;;;5037292;28;20036;-46
2022/03/15 01:53:01;;;;;;;7.80;3.38;;;10.80;60.50;;;;;;5037545;28;20560;-46
2022/03/15 01:55:27;;;;;;;9.70;3.92;;;10.90;61.30;;;;;;5037150;28;20057;-45
2022/03/15 01:57:54;;;;;;;8.73;3.55;;;10.90;61.50;;;;;;5037247;28;20448;-46
2022/03/15 02:00:20;;;;;;;7.95;3.20;;;10.90;61.80;;;;;;5038893;28;20026;-45
2022/03/15 02:02:47;;;;;;;8.23;3.50;;;11.00;61.60;;;;;;5041578;28;20128;-47
2022/03/15 02:05:13;;;;;;;7.93;3.17;;;11.00;61.80;;;;;;5041826;28;20036;-46
2022/03/15 02:07:39;;;;;;;7.03;3.50;;;11.00;61.50;;;;;;5041305;28;20485;-46
2022/03/15 02:10:10;;;;;;;8.68;3.60;;;11.00;60.80;;;;;;5041445;28;20056;-46
2022/03/15 02:12:38;;;;;;;9.18;3.58;;;11.00;62.20;;;;;;5041000;28;20044;-46
2022/03/15 02:15:08;;;;;;;9.18;3.17;;;11.00;62.20;;;;;;5041242;28;20037;-45
2022/03/15 02:17:34;;;;;;;8.07;3.42;;;11.00;61.10;;;;;;5041326;28;20021;-45
2022/03/15 02:20:05;;;;;;;7.93;3.92;;;11.00;61.00;;;;;;5041101;28;20079;-45
2022/03/15 02:22:31;;;;;;;9.63;3.90;;;10.90;61.60;;;;;;5041262;28;20036;-46
2022/03/15 02:24:56;;;;;;;5.78;3.25;;;10.90;60.50;;;;;;5040706;28;20045;-45
2022/03/15 02:27:24;;;;;;;10.38;3.92;;;10.90;60.70;;;;;;5040918;28;20030;-46
2022/03/15 02:29:50;;;;;;;7.78;3.42;;;10.90;62.20;;;;;;5040732;28;20378;-45
2022/03/15 02:32:16;;;;;;;7.57;3.78;;;10.90;61.40;;;;;;5040994;28;20036;-46
2022/03/15 02:34:42;;;;;;;7.25;4.05;;;10.90;61.80;;;;;;5040881;28;20452;-47
2022/03/15 02:37:08;;;;;;;10.00;3.50;;;10.90;61.80;;;;;;5040813;28;20469;-45
2022/03/15 02:39:34;;;;;;;7.65;3.15;;;10.90;61.60;;;;;;5040803;28;20107;-46
2022/03/15 02:42:00;;;;;;;9.10;3.58;;;10.80;61.70;;;;;;5041360;28;20030;-45
2022/03/15 02:44:26;;;;;;;5.70;3.42;;;10.90;62.00;;;;;;5041002;28;20067;-45
2022/03/15 02:46:52;;;;;;;9.57;3.47;;;10.80;62.60;;;;;;5041017;28;20029;-45
2022/03/15 02:49:18;;;;;;;7.47;3.85;;;10.80;62.60;;;;;;5040947;28;20529;-45
2022/03/15 02:51:45;;;;;;;11.32;4.35;;;10.80;62.20;;;;;;5040774;28;20057;-45
2022/03/15 02:54:13;;;;;;;8.43;3.55;;;10.80;62.50;;;;;;5040912;28;20502;-46
2022/03/15 02:56:43;;;;;;;10.88;4.03;;;10.80;62.00;;;;;;5040878;28;20022;-45
2022/03/15 02:59:16;;;;;;;8.57;3.70;;;10.80;62.50;;;;;;5040731;28;20083;-45
2022/03/15 03:01:43;;;;;;;7.68;3.70;;;10.80;62.60;;;;;;5040854;28;20049;-45
2022/03/15 03:04:09;;;;;;;7.70;3.50;;;10.80;62.80;;;;;;5040542;28;20508;-47
2022/03/15 03:06:35;;;;;;;9.90;3.55;;;10.80;61.60;;;;;;5040573;28;20096;-45
2022/03/15 03:09:01;;;;;;;9.10;3.40;;;10.80;61.80;;;;;;5040434;28;20040;-46
2022/03/15 03:11:26;;;;;;;7.95;3.35;;;10.80;62.20;;;;;;5039340;28;20033;-45
2022/03/15 03:13:58;;;;;;;8.75;3.45;;;10.80;62.90;;;;;;5040412;28;20414;-45
2022/03/15 03:16:26;;;;;;;7.85;3.53;;;10.80;63.10;;;;;;5040490;28;20025;-45
2022/03/15 03:18:53;;;;;;;11.38;4.00;;;10.80;62.60;;;;;;5040350;28;20036;-45
2022/03/15 03:21:19;;;;;;;6.95;3.50;;;10.80;62.60;;;;;;5040153;28;20025;-45
2022/03/15 03:23:44;;;;;;;6.88;3.40;;;10.80;63.30;;;;;;5040006;28;20053;-46
2022/03/15 03:26:10;;;;;;;8.98;3.50;;;10.80;62.30;;;;;;5040311;28;20549;-45
2022/03/15 03:28:37;;;;;;;6.72;3.10;;;10.80;63.00;;;;;;5039879;28;20052;-45
2022/03/15 03:31:04;;;;;;;10.38;3.90;;;10.80;63.90;;;;;;5040100;28;20061;-45
2022/03/15 03:33:30;;;;;;;7.85;3.92;;;10.80;62.90;;;;;;5039944;28;20052;-46
2022/03/15 03:35:57;;;;;;;7.60;3.30;;;10.80;62.90;;;;;;5040450;28;20416;-45
2022/03/15 03:38:22;;;;;;;9.02;3.78;;;10.80;62.30;;;;;;5040135;28;20108;-45
2022/03/15 03:40:48;;;;;;;8.52;3.47;;;10.80;62.30;;;;;;5039861;28;20065;-45
2022/03/15 03:43:14;;;;;;;7.63;3.28;;;10.80;63.20;;;;;;5039766;28;20057;-46
2022/03/15 03:45:41;;;;;;;8.27;3.45;;;10.80;62.70;;;;;;5039606;28;20040;-45
2022/03/15 03:48:07;;;;;;;8.85;3.50;;;10.80;61.90;;;;;;5039686;28;20112;-45
2022/03/15 03:50:35;;;;;;;7.80;3.60;;;10.80;62.50;;;;;;5039444;28;20026;-46
2022/03/15 03:53:02;;;;;;;8.90;3.80;;;10.80;63.50;;;;;;5039626;28;20446;-45
2022/03/15 03:55:28;;;;;;;9.90;3.55;;;10.80;62.00;;;;;;5039602;28;20026;-45
2022/03/15 03:57:54;;;;;;;7.78;3.47;;;10.80;61.80;;;;;;5039587;28;20067;-45
2022/03/15 04:00:20;;;;;;;6.32;3.63;;;10.80;62.40;;;;;;5039493;28;20044;-46
2022/03/15 04:02:46;;;;;;;6.75;3.35;;;10.80;63.50;;;;;;5039490;28;20037;-45
2022/03/15 04:05:13;;;;;;;7.90;3.53;;;10.80;63.70;;;;;;5039679;28;20026;-45
2022/03/15 04:07:40;;;;;;;6.90;3.47;;;10.80;62.40;;;;;;5039571;28;20041;-45
2022/03/15 04:10:08;;;;;;;7.55;3.83;;;10.80;63.10;;;;;;5039040;28;20025;-45
2022/03/15 04:12:34;;;;;;;9.50;4.00;;;10.80;63.50;;;;;;5039239;28;20029;-46
2022/03/15 04:15:00;;;;;;;9.63;3.92;;;10.80;62.90;;;;;;5039555;28;20021;-45
2022/03/15 04:17:27;;;;;;;8.13;3.78;;;10.80;62.30;;;;;;5039369;28;20037;-46
2022/03/15 04:19:53;;;;;;;9.50;3.85;;;10.80;62.30;;;;;;5039168;28;20370;-45
2022/03/15 04:22:19;;;;;;;8.25;3.85;;;10.80;62.80;;;;;;5038782;28;20040;-45
2022/03/15 04:24:45;;;;;;;8.85;4.07;;;10.80;62.00;;;;;;5038474;28;20821;-46
2022/03/15 04:27:11;;;;;;;8.80;3.65;;;10.80;62.20;;;;;;5037749;28;20053;-46
2022/03/15 04:29:37;;;;;;;7.75;3.70;;;10.80;63.00;;;;;;5039035;28;20030;-45
2022/03/15 04:32:04;;;;;;;7.47;3.58;;;10.80;63.20;;;;;;5038739;28;20504;-45
2022/03/15 04:34:30;;;;;;;10.32;4.65;;;10.80;63.00;;;;;;5039063;28;20100;-45
2022/03/15 04:36:57;;;;;;;6.82;3.90;;;10.80;64.10;;;;;;5038791;28;20377;-46
2022/03/15 04:39:23;;;;;;;10.15;3.65;;;10.80;63.00;;;;;;5038748;28;20018;-45
2022/03/15 04:41:50;;;;;;;6.65;3.50;;;10.80;63.70;;;;;;5038730;28;20017;-45
2022/03/15 04:44:16;;;;;;;10.57;3.97;;;10.80;62.60;;;;;;5038899;28;20025;-45
2022/03/15 04:46:41;;;;;;;8.50;3.75;;;10.80;62.40;;;;;;5038790;28;20052;-45
2022/03/15 04:49:07;;;;;;;9.40;3.63;;;10.80;62.90;;;;;;5038555;28;20504;-45
2022/03/15 04:51:33;;;;;;;8.50;3.50;;;10.80;62.70;;;;;;5038545;28;20037;-44
2022/03/15 04:53:59;;;;;;;7.57;3.50;;;10.80;63.10;;;;;;5038666;28;20049;-45
2022/03/15 04:56:25;;;;;;;8.23;4.40;;;10.80;64.00;;;;;;5038667;28;20033;-45
2022/03/15 04:58:51;;;;;;;7.90;3.45;;;10.80;64.50;;;;;;5038417;28;20017;-45
2022/03/15 05:01:17;;;;;;;6.80;3.88;;;10.80;63.00;;;;;;5038105;28;20029;-46
2022/03/15 05:03:43;;;;;;;7.72;3.88;;;10.80;63.40;;;;;;5038022;28;20083;-46
2022/03/15 05:06:08;;;;;;;9.98;3.83;;;10.80;64.50;;;;;;5038439;28;20535;-45
2022/03/15 05:08:34;;;;;;;7.68;3.40;;;10.80;63.20;;;;;;5038204;28;20024;-45
2022/03/15 05:11:06;;;;;;;6.18;3.28;;;10.80;64.00;;;;;;5038098;28;20523;-45
2022/03/15 05:13:42;;;;;;;8.88;3.47;;;10.80;64.60;;;;;;5038473;28;20021;-45
2022/03/15 05:16:17;;;;;;;7.25;3.70;;;10.80;64.90;;;;;;5038254;28;20025;-48
2022/03/15 05:18:45;;;;;;;8.52;3.30;;;10.80;64.10;;;;;;5038108;28;20029;-49
2022/03/15 05:21:16;;;;;;;7.63;3.83;;;10.80;65.30;;;;;;5038255;28;20109;-48
2022/03/15 05:23:43;;;;;;;9.48;3.75;;;10.80;63.40;;;;;;5037964;28;20045;-46
2022/03/15 05:26:10;;;;;;;10.70;4.05;;;10.80;63.60;;;;;;5038167;28;20036;-46
2022/03/15 05:28:36;;;;;;;8.63;3.28;;;10.80;64.70;;;;;;5038114;28;20021;-47
2022/03/15 05:31:02;;;;;;;6.72;3.45;;;10.80;64.40;;;;;;5037773;28;20037;-47
2022/03/15 05:33:28;;;;;;;10.35;4.20;;;10.80;64.30;;;;;;5038033;28;20028;-45
2022/03/15 05:35:54;;;;;;;9.23;4.40;;;10.70;64.30;;;;;;5037087;28;20087;-48
2022/03/15 05:38:20;;;;;;;10.48;4.63;;;10.70;63.50;;;;;;5037612;28;20474;-46
2022/03/15 05:40:46;;;;;;;6.95;3.97;;;10.70;64.90;;;;;;5038238;28;20120;-46
2022/03/15 05:43:12;;;;;;;8.20;3.47;;;10.70;64.60;;;;;;5037728;28;20060;-47
2022/03/15 05:45:38;;;;;;;9.80;4.10;;;10.70;64.60;;;;;;5038063;28;20029;-51
2022/03/15 05:48:05;;;;;;;7.93;3.90;;;10.70;63.50;;;;;;5037878;28;20033;-46
2022/03/15 05:50:30;;;;;;;7.82;4.03;;;10.70;64.30;;;;;;5037787;28;20021;-48
2022/03/15 05:52:57;;;;;;;7.85;3.78;;;10.70;64.40;;;;;;5037643;28;20562;-46
2022/03/15 05:55:23;;;;;;;9.30;3.83;;;10.70;65.00;;;;;;5037810;28;20037;-46
2022/03/15 05:57:48;;;;;;;9.15;3.92;;;10.70;65.60;;;;;;5037594;28;20440;-48
2022/03/15 06:00:15;;;;;;;8.23;4.00;;;10.70;63.50;;;;;;5037394;28;20049;-47
2022/03/15 06:02:41;;;;;;;7.95;3.85;;;10.70;63.90;;;;;;5036270;28;20025;-46
2022/03/15 06:05:08;;;;;;;7.40;3.92;;;10.70;64.30;;;;;;5037266;28;20029;-46
2022/03/15 06:07:34;;;;;;;6.43;3.45;;;10.70;63.70;;;;;;5036223;28;20031;-46
2022/03/15 06:09:59;;;;;;;7.93;3.67;;;10.70;65.70;;;;;;5037455;28;20034;-46
2022/03/15 06:12:25;;;;;;;8.40;4.45;;;10.70;66.00;;;;;;5037409;28;20017;-48
2022/03/15 06:14:52;;;;;;;7.90;3.75;;;10.70;64.20;;;;;;5037653;28;20373;-51
2022/03/15 06:17:19;;;;;;;9.40;4.15;;;10.80;64.90;;;;;;5037593;28;20124;-45
2022/03/15 06:19:45;;;;;;;6.90;3.65;;;10.80;66.50;;;;;;5037435;28;20400;-50
2022/03/15 06:22:11;;;;;;;7.97;4.13;;;10.80;65.40;;;;;;5037286;28;20025;-49
2022/03/15 06:24:37;;;;;;;9.35;3.80;;;10.80;65.30;;;;;;5037170;28;20046;-52
2022/03/15 06:27:03;;;;;;;8.15;3.33;;;10.80;65.60;;;;;;5037520;28;20030;-46
2022/03/15 06:29:30;;;;;;;7.13;3.42;;;10.80;66.00;;;;;;5035783;28;20064;-47
2022/03/15 06:31:56;;;;;;;8.75;3.67;;;10.80;65.30;;;;;;5037203;28;20519;-46
2022/03/15 06:34:23;;;;;;;7.93;4.10;;;10.80;66.30;;;;;;5037471;28;20030;-46
2022/03/15 06:36:49;;;;;;;7.30;3.67;;;10.80;66.60;;;;;;5037186;28;20036;-50
2022/03/15 06:39:15;;;;;;;8.45;3.97;;;10.80;65.50;;;;;;5037404;28;20021;-47
2022/03/15 06:41:43;;;;;;;8.23;3.58;;;10.80;66.40;;;;;;5037470;28;20075;-48
2022/03/15 06:44:09;;;;;;;8.90;4.10;;;10.80;65.40;;;;;;5037160;28;20033;-52
2022/03/15 06:46:35;;;;;;;9.65;4.15;;;10.80;65.40;;;;;;5038971;28;20057;-46
2022/03/15 06:49:02;;;;;;;9.20;4.07;;;10.90;65.50;;;;;;5040854;28;20033;-47
2022/03/15 06:51:28;;;;;;;8.35;4.13;;;10.90;65.20;;;;;;5040880;28;20085;-47
2022/03/15 06:53:54;;;;;;;8.55;4.30;;;10.90;65.20;;;;;;5040953;28;20052;-47
2022/03/15 06:56:20;;;;;;;8.07;3.90;;;10.80;64.70;;;;;;5040932;28;20018;-50
2022/03/15 06:58:46;;;;;;;8.52;3.58;;;10.80;65.50;;;;;;5040678;28;20029;-47
2022/03/15 07:01:12;;;;;;;8.15;3.75;;;10.80;67.30;;;;;;5040879;28;20026;-47
2022/03/15 07:03:38;;;;;;;9.20;4.05;;;10.80;66.10;;;;;;5040751;28;20444;-47
2022/03/15 07:06:04;;;;;;;10.38;4.18;;;10.80;65.80;;;;;;5040857;28;20505;-48
2022/03/15 07:08:30;;;;;;;9.65;4.55;;;10.80;66.00;;;;;;5040497;28;20494;-48
2022/03/15 07:10:57;;;;;;;7.70;4.20;;;10.80;65.50;;;;;;5040420;28;20029;-47
2022/03/15 07:13:23;;;;;;;8.75;4.72;;;10.90;66.00;;;;;;5040604;28;20033;-46
2022/03/15 07:15:48;;;;;;;7.63;4.15;;;10.80;65.90;;;;;;5040522;28;20424;-49
2022/03/15 07:18:18;;;;;;;11.13;4.45;;;10.90;65.60;;;;;;5040261;28;20079;-46
2022/03/15 07:20:44;;;;;;;9.05;4.20;;;10.90;65.70;;;;;;5040188;28;20413;-51
2022/03/15 07:23:10;;;;;;;8.13;4.43;;;10.90;65.60;;;;;;5040336;28;20052;-46
2022/03/15 07:25:35;;;;;;;9.60;4.35;;;10.90;67.10;;;;;;5040541;28;20025;-47
2022/03/15 07:28:01;;;;;;;11.68;5.15;;;10.90;66.10;;;;;;5040097;28;20042;-49
2022/03/15 07:30:27;;;;;;;7.43;4.18;;;11.00;65.70;;;;;;5040137;28;20148;-47
2022/03/15 07:32:53;;;;;;;10.10;4.47;;;11.00;65.90;;;;;;5039820;28;20044;-48
2022/03/15 07:35:20;;;;;;;10.85;4.55;;;11.00;66.00;;;;;;5038699;28;20045;-50
2022/03/15 07:37:55;;;;;;;9.55;5.07;;;11.10;66.20;;;;;;5040152;28;20025;-47
2022/03/15 07:40:22;;;;;;;8.35;4.75;;;11.10;66.50;;;;;;5039674;28;20075;-48
2022/03/15 07:42:49;;;;;;;10.63;4.32;;;11.10;65.40;;;;;;5040067;28;20030;-46
2022/03/15 07:45:15;;;;;;;9.10;4.53;;;11.10;67.30;;;;;;5039998;28;20049;-49
2022/03/15 07:47:42;;;;;;;12.52;5.43;;;11.20;66.30;;;;;;5039828;28;20040;-50
2022/03/15 07:50:08;;;;;;;8.02;4.43;;;11.20;66.10;;;;;;5039849;28;20029;-47
2022/03/15 07:52:34;;;;;;;8.20;4.82;;;11.30;67.70;;;;;;5040030;28;20025;-47
2022/03/15 07:54:59;;;;;;;8.98;4.20;;;11.30;65.40;;;;;;5039861;28;20041;-46
2022/03/15 07:57:25;;;;;;;10.20;4.35;;;11.30;65.60;;;;;;5038717;28;20021;-49
2022/03/15 07:59:51;;;;;;;7.60;4.15;;;11.30;67.60;;;;;;5038801;28;20060;-49
2022/03/15 08:02:17;;;;;;;11.32;4.70;;;11.30;67.10;;;;;;5039030;28;20030;-48
2022/03/15 08:04:44;;;;;;;8.65;4.25;;;11.40;66.80;;;;;;5038945;28;20028;-48
2022/03/15 08:07:09;;;;;;;10.27;4.18;;;11.40;67.90;;;;;;5038949;28;20026;-53
2022/03/15 08:09:38;;;;;;;9.18;4.15;;;11.40;68.60;;;;;;5039066;28;20477;-47
2022/03/15 08:12:04;;;;;;;10.15;4.80;;;11.50;69.10;;;;;;5039025;28;20108;-47
2022/03/15 08:14:30;;;;;;;9.40;4.70;;;11.50;67.90;;;;;;5038950;28;20089;-48
2022/03/15 08:16:56;;;;;;;8.07;4.50;;;11.60;67.70;;;;;;5038891;28;20099;-50
2022/03/15 08:19:22;;;;;;;10.35;4.70;;;11.60;67.10;;;;;;5038907;28;20029;-49
2022/03/15 08:21:48;;;;;;;9.75;4.82;;;11.60;68.00;;;;;;5039185;28;20386;-48
2022/03/15 08:24:16;;;;;;;8.63;4.70;;;11.70;67.60;;;;;;5038442;28;20216;-51
2022/03/15 08:26:42;;;;;;;8.88;4.40;;;11.70;66.90;;;;;;5038551;28;20043;-50
2022/03/15 08:29:08;;;;;;;8.75;4.22;;;11.70;68.10;;;;;;5038810;28;20444;-48
2022/03/15 08:31:34;;;;;;;8.82;4.38;;;11.80;68.90;;;;;;5038157;28;20033;-45
2022/03/15 08:33:59;;;;;;;8.68;4.35;;;11.80;67.70;;;;;;5038942;28;20028;-45
2022/03/15 08:36:25;;;;;;;10.48;4.88;;;11.90;67.40;;;;;;5038472;28;20044;-46
2022/03/15 08:38:51;;;;;;;10.90;5.28;;;11.90;68.80;;;;;;5038451;28;20017;-45
2022/03/15 08:41:17;;;;;;;10.35;4.95;;;12.00;67.50;;;;;;5038588;28;20037;-48
2022/03/15 08:43:43;;;;;;;9.02;4.70;;;12.10;67.70;;;;;;5037081;28;20025;-48
2022/03/15 08:46:09;;;;;;;9.05;4.32;;;12.10;67.60;;;;;;5036585;28;20424;-46
2022/03/15 08:48:35;;;;;;;9.43;4.60;;;12.20;68.60;;;;;;5037564;28;20071;-46
2022/03/15 08:51:01;;;;;;;8.93;4.78;;;12.20;68.70;;;;;;5038137;28;20113;-45
2022/03/15 08:53:28;;;;;;;7.88;4.45;;;12.30;67.30;;;;;;5037804;28;20044;-45
2022/03/15 08:55:55;;;;;;;8.95;4.68;;;12.40;66.60;;;;;;5038195;28;20076;-47
2022/03/15 08:58:21;;;;;;;9.10;4.85;;;12.30;68.50;;;;;;5037504;28;20022;-49
2022/03/15 09:00:48;;;;;;;8.38;4.50;;;12.30;68.20;;;;;;5036478;28;20064;-47
2022/03/15 09:03:14;;;;;;;8.90;4.47;;;12.40;68.80;;;;;;5036473;28;20021;-49
2022/03/15 09:05:40;;;;;;;7.65;4.13;;;12.40;68.30;;;;;;5036466;28;20553;-46
2022/03/15 09:08:06;;;;;;;8.95;4.45;;;12.50;68.00;;;;;;5036857;28;20037;-46
2022/03/15 09:10:32;;;;;;;6.55;4.35;;;12.50;67.30;;;;;;5037526;28;20036;-47
2022/03/15 09:12:58;;;;;;;8.73;4.55;;;12.60;69.20;;;;;;5037555;28;20512;-47
2022/03/15 09:15:25;;;;;;;8.32;4.38;;;12.70;68.00;;;;;;5037767;28;20105;-46
2022/03/15 09:17:51;;;;;;;8.55;5.00;;;12.80;68.60;;;;;;5037555;28;20518;-47
2022/03/15 09:20:17;;;;;;;8.77;5.13;;;12.90;68.30;;;;;;5038042;28;20041;-45
2022/03/15 09:22:42;;;;;;;9.57;4.53;;;12.90;68.60;;;;;;5037561;28;20025;-46
2022/03/15 09:25:09;;;;;;;10.90;5.07;;;13.00;69.00;;;;;;5037791;28;20039;-46
2022/03/15 09:27:35;;;;;;;8.90;5.05;;;13.10;68.60;;;;;;5037661;28;20037;-47
2022/03/15 09:30:01;;;;;;;8.63;4.70;;;13.30;67.70;;;;;;5037731;28;20057;-48
2022/03/15 09:32:27;;;;;;;11.48;4.82;;;13.40;67.40;;;;;;5037349;28;20057;-47
2022/03/15 09:34:54;;;;;;;8.80;4.47;;;13.50;67.90;;;;;;5037513;28;20033;-46
2022/03/15 09:37:19;;;;;;;11.20;4.32;;;13.60;67.00;;;;;;5037553;28;20052;-45
2022/03/15 09:39:45;;;;;;;10.85;4.70;;;13.80;68.70;;;;;;5037437;28;20029;-46
2022/03/15 09:42:11;;;;;;;8.27;4.50;;;14.00;67.10;;;;;;5037486;28;20075;-46
2022/03/15 09:44:41;;;;;;;8.93;4.70;;;14.10;66.50;;;;;;5037343;28;20478;-46
2022/03/15 09:47:08;;;;;;;9.98;4.90;;;14.20;68.20;;;;;;5037439;28;20097;-46
2022/03/15 09:49:36;;;;;;;11.60;4.95;;;14.40;68.10;;;;;;5037393;28;20098;-46
2022/03/15 09:52:07;;;;;;;10.40;4.80;;;14.70;67.90;;;;;;5037585;28;20101;-46
2022/03/15 09:54:33;;;;;;;9.25;4.63;;;15.10;67.50;;;;;;5037365;28;20022;-45
2022/03/15 09:56:59;;;;;;;8.15;4.45;;;15.50;67.20;;;;;;5037460;28;20024;-46
2022/03/15 09:59:27;;;;;;;7.97;4.72;;;15.90;67.80;;;;;;5037424;28;20025;-46
2022/03/15 10:01:54;;;;;;;8.10;4.80;;;16.50;66.60;;;;;;5037199;28;20022;-47
2022/03/15 10:04:22;;;;;;;9.32;4.82;;;17.10;66.40;;;;;;5037304;28;20037;-48
2022/03/15 10:06:48;;;;;;;8.63;4.90;;;17.60;64.30;;;;;;5037499;28;20516;-46
2022/03/15 10:09:15;;;;;;;8.77;4.28;;;17.90;64.60;;;;;;5037327;28;20034;-47
2022/03/15 10:11:41;;;;;;;8.73;4.70;;;18.10;63.90;;;;;;5037075;28;20026;-47
2022/03/15 10:14:08;;;;;;;8.57;4.55;;;18.20;63.00;;;;;;5037026;28;20021;-46
2022/03/15 10:16:42;;;;;;;9.93;4.70;;;18.20;62.50;;;;;;5037263;28;20017;-47
2022/03/15 10:19:10;;;;;;;7.70;4.57;;;18.00;62.10;;;;;;5037481;28;20347;-46
2022/03/15 10:21:49;;;;;;;8.52;4.25;;;17.60;61.80;;;;;;5038925;28;20036;-46
2022/03/15 10:24:23;;;;;;;10.02;5.20;;;17.30;62.30;;;;;;5040799;28;20064;-47
2022/03/15 10:26:53;;;;;;;8.85;4.68;;;17.10;62.70;;;;;;5041205;28;20113;-46
2022/03/15 10:29:20;;;;;;;10.90;5.68;;;16.90;63.10;;;;;;5040154;28;20526;-45
2022/03/15 10:31:47;;;;;;;9.73;5.65;;;16.80;63.10;;;;;;5041051;28;20025;-46
2022/03/15 10:34:15;;;;;;;10.68;6.53;;;16.70;63.30;;;;;;5040824;28;20026;-46
2022/03/15 10:36:45;;;;;;;9.68;5.47;;;16.70;63.40;;;;;;5040751;28;20028;-46
2022/03/15 10:39:13;;;;;;;9.68;5.32;;;16.60;63.60;;;;;;5040788;28;20462;-46
2022/03/15 10:41:51;;;;;;;10.70;4.97;;;16.70;63.80;;;;;;5040731;28;20026;-46
2022/03/15 10:44:22;;;;;;;9.07;5.10;;;16.70;63.50;;;;;;5040794;28;20033;-51
2022/03/15 10:47:02;;;;;;;9.77;5.65;;;16.70;63.60;;;;;;5040767;28;20034;-52
2022/03/15 10:49:29;;;;;;;10.02;5.07;;;16.70;63.00;;;;;;5040581;28;20080;-50
2022/03/15 10:51:55;;;;;;;12.68;5.38;;;16.50;63.20;;;;;;5040791;28;20385;-46
2022/03/15 10:54:24;;;;;;;10.48;5.65;;;16.50;63.70;;;;;;5041101;28;20030;-51
2022/03/15 10:56:58;;;;;;;8.90;5.50;;;16.60;63.80;;;;;;5040761;28;20017;-47
2022/03/15 10:59:25;;;;;;;12.77;5.50;;;16.80;63.90;;;;;;5041037;28;20072;-46
2022/03/15 11:01:51;;;;;;;9.60;5.47;;;17.10;63.30;;;;;;5039982;28;20029;-49
2022/03/15 11:04:17;;;;;;;11.38;5.13;;;17.40;63.10;;;;;;5040148;28;20025;-46
2022/03/15 11:06:49;;;;;;;9.98;5.53;;;17.60;63.20;;;;;;5040070;28;20025;-46
2022/03/15 11:09:18;;;;;;;11.43;5.38;;;17.70;62.60;;;;;;5040139;28;20105;-49
2022/03/15 11:11:47;;;;;;;8.38;4.90;;;17.80;63.30;;;;;;5040149;28;20026;-53
2022/03/15 11:14:13;;;;;;;9.30;5.18;;;18.10;63.20;;;;;;5040015;28;20029;-48
2022/03/15 11:16:42;;;;;;;8.15;5.00;;;18.60;62.90;;;;;;5040012;28;20018;-47
2022/03/15 11:19:12;;;;;;;9.50;4.95;;;19.20;63.40;;;;;;5040153;28;20476;-54
2022/03/15 11:21:40;;;;;;;10.25;5.18;;;20.10;63.10;;;;;;5040214;28;20048;-52
2022/03/15 11:24:11;;;;;;;10.07;4.85;;;20.90;60.20;;;;;;5039755;28;20043;-50
2022/03/15 11:26:44;;;;;;;8.23;4.60;;;21.50;60.30;;;;;;5039712;28;20056;-48
2022/03/15 11:29:12;;;;;;;10.82;4.80;;;21.80;58.30;;;;;;5039583;28;20025;-49
2022/03/15 11:31:38;;;;;;;8.23;4.82;;;22.20;60.00;;;;;;5038118;28;20039;-53
2022/03/15 11:34:05;;;;;;;8.43;4.55;;;22.60;58.40;;;;;;5038186;28;20021;-53
2022/03/15 11:36:32;;;;;;;9.02;5.40;;;23.10;57.10;;;;;;5039909;28;20052;-51
2022/03/15 11:38:59;;;;;;;9.40;4.80;;;23.80;58.30;;;;;;5039555;28;20096;-53
2022/03/15 11:41:26;;;;;;;10.05;4.70;;;24.50;55.40;;;;;;5039732;28;20017;-56
2022/03/15 11:44:01;;;;;;;9.18;4.70;;;24.60;50.80;;;;;;5039697;28;20030;-56
2022/03/15 11:46:50;;;;;;;9.70;4.45;;;24.80;50.30;;;;;;5039697;28;20040;-51
2022/03/15 11:49:42;;;;;;;10.23;5.72;;;25.60;53.20;;;;;;5039161;28;20421;-53
2022/03/15 11:52:31;;;;;;;8.73;4.38;;;25.90;49.70;;;;;;5039092;28;20068;-54
2022/03/15 11:55:10;;;;;;;9.45;4.60;;;25.60;49.50;;;;;;5038856;28;20029;-52
2022/03/15 11:57:56;;;;;;;8.57;4.25;;;25.30;47.80;;;;;;5039193;28;20057;-52
2022/03/15 12:00:36;;;;;;;10.55;5.57;;;25.30;51.50;;;;;;5039054;28;20029;-49
2022/03/15 12:03:06;;;;;;;9.52;5.93;;;24.90;47.20;;;;;;5039022;28;20060;-48
2022/03/15 12:05:47;;;;;;;10.82;6.35;;;25.00;49.60;;;;;;5039279;28;20022;-49
2022/03/15 12:08:21;;;;;;;9.57;5.97;;;24.80;48.70;;;;;;5038937;28;20063;-53
2022/03/15 12:10:57;;;;;;;12.02;6.65;;;24.80;46.80;;;;;;5038967;28;20076;-48
2022/03/15 12:13:45;;;;;;;10.30;6.25;;;24.80;46.90;;;;;;5038466;28;20055;-48
2022/03/15 12:16:18;;;;;;;9.48;6.30;;;25.10;49.80;;;;;;5037912;28;20096;-47
2022/03/15 12:18:51;;;;;;;9.45;6.03;;;25.20;47.60;;;;;;5040639;28;20477;-47
2022/03/15 12:21:17;;;;;;;;;;;24.60;47.20;;;;;;5039008;28;20026;-50
2022/03/15 12:23:46;;;;;;;14.13;5.68;;;24.50;48.90;;;;;;5038317;28;19913;-48
2022/03/15 12:26:20;;;;;;;10.27;5.35;;;24.20;49.30;;;;;;5038427;28;20025;-49
2022/03/15 12:29:07;;;;;;;9.93;5.85;;;24.30;48.00;;;;;;5037995;28;20028;-50
2022/03/15 12:31:46;;;;;;;11.30;6.05;;;24.10;46.60;;;;;;5038335;28;20075;-48
2022/03/15 12:34:17;;;;;;;8.25;4.85;;;24.20;47.80;;;;;;5038662;28;20152;-50
2022/03/15 12:36:59;;;;;;;11.07;5.78;;;24.20;47.90;;;;;;5038311;28;20021;-48
2022/03/15 12:39:27;;;;;;;10.43;5.35;;;24.30;46.80;;;;;;5038356;28;20025;-47
2022/03/15 12:42:05;;;;;;;8.98;5.50;;;24.10;46.50;;;;;;5038476;28;20037;-47
2022/03/15 12:44:44;;;;;;;12.32;5.30;;;24.00;46.30;;;;;;5038089;28;20034;-48
2022/03/15 12:47:11;;;;;;;17.02;5.95;;;24.00;46.30;;;;;;5038391;28;20472;-59